Time;durP1;ratioP1;P1;durP2;ratioP2;P2;SDS_P1;SDS_P2;PMS_P1;PMS_P2;Temp;Humidity;BMP_temperature;BMP_pressure;BME280_temperature;BME280_humidity;BME280_pressure;Samples;Min_cycle;Max_cycle;Signal;HPM_P1;HPM_P2
2022/10/10 00:02:45;;;;;;;8.13;2.67;;;;;;;10.72;91.66;99839.03;12198057;19;20015;-82
2022/10/10 00:06:47;;;;;;;7.40;2.88;;;;;;;10.69;92.03;99845.91;12218024;19;20499;-82
2022/10/10 00:10:49;;;;;;;6.57;2.70;;;;;;;10.65;92.72;99844.72;12216839;19;20038;-83
2022/10/10 00:14:50;;;;;;;6.70;3.20;;;;;;;10.66;93.49;99842.81;12197685;19;20014;-82
2022/10/10 00:18:52;;;;;;;6.35;2.63;;;;;;;10.61;93.92;99840.78;12214532;19;20011;-82
2022/10/10 00:22:54;;;;;;;6.15;2.85;;;;;;;10.60;94.13;99846.56;12213067;19;20276;-82
2022/10/10 00:26:55;;;;;;;7.60;2.58;;;;;;;10.58;94.22;99845.97;12196399;19;20349;-84
2022/10/10 00:30:57;;;;;;;10.90;3.15;;;;;;;10.56;94.52;99856.38;12220134;19;20085;-83
2022/10/10 00:34:59;;;;;;;5.60;2.65;;;;;;;10.50;95.10;99858.25;12218217;19;20490;-84
2022/10/10 00:39:00;;;;;;;5.18;2.72;;;;;;;10.42;95.65;99856.72;12198565;19;20038;-83
2022/10/10 00:43:02;;;;;;;4.63;2.47;;;;;;;10.33;96.34;99855.44;12216640;19;20006;-83
2022/10/10 00:47:04;;;;;;;8.30;2.88;;;;;;;10.22;97.18;99853.56;12217448;19;20018;-83
2022/10/10 00:51:13;;;;;;;8.32;3.10;;;;;;;10.15;97.61;99847.38;12193252;19;20007;-84
2022/10/10 00:55:16;;;;;;;7.30;2.70;;;;;;;10.09;98.26;99856.63;12215089;19;20003;-84
2022/10/10 00:59:19;;;;;;;5.40;2.83;;;;;;;10.06;98.91;99855.19;12219410;19;20420;-83
2022/10/10 01:03:20;;;;;;;5.20;3.10;;;;;;;10.03;99.33;99842.75;12193266;19;20368;-83
2022/10/10 01:07:26;;;;;;;7.15;3.30;;;;;;;10.01;99.94;99833.06;12215230;19;20015;-83
2022/10/10 01:11:51;;;;;;;5.53;2.95;;;;;;;9.98;100.00;99831.63;12213089;19;20007;-82
2022/10/10 01:16:03;;;;;;;7.40;2.78;;;;;;;9.95;100.00;99834.03;12193381;19;20119;-83
2022/10/10 01:20:26;;;;;;;9.52;3.08;;;;;;;9.92;100.00;99829.84;12214916;19;20015;-84
2022/10/10 01:24:36;;;;;;;10.13;3.30;;;;;;;9.90;100.00;99828.41;12189196;19;20015;-84
2022/10/10 01:28:50;;;;;;;5.30;2.67;;;;;;;9.88;100.00;99825.94;12213284;19;20027;-84
2022/10/10 01:32:58;;;;;;;7.22;2.80;;;;;;;9.84;100.00;99830.22;12192579;19;19999;-82
2022/10/10 01:37:14;;;;;;;5.78;3.15;;;;;;;9.84;100.00;99827.47;12206790;19;20010;-83
2022/10/10 01:41:20;;;;;;;7.25;3.00;;;;;;;9.82;100.00;99835.16;12213535;19;20463;-83
2022/10/10 01:45:23;;;;;;;7.65;3.40;;;;;;;9.80;100.00;99824.38;12192912;19;20383;-85
2022/10/10 01:49:29;;;;;;;5.55;3.10;;;;;;;9.79;100.00;99819.97;12214256;19;20014;-84
2022/10/10 01:53:41;;;;;;;6.38;3.10;;;;;;;9.78;100.00;99822.97;12211966;19;20108;-84
2022/10/10 01:57:43;;;;;;;9.60;3.45;;;;;;;9.76;100.00;99822.38;12190446;19;20499;-84
2022/10/10 02:02:03;;;;;;;6.78;3.28;;;;;;;9.76;100.00;99814.13;12212036;19;20010;-83
2022/10/10 02:06:49;;;;;;;7.38;3.20;;;;;;;9.71;100.00;99803.84;12189496;19;20062;-82
2022/10/10 02:10:59;;;;;;;9.07;3.58;;;;;;;9.70;100.00;99809.59;12204746;19;20093;-84
2022/10/10 02:15:09;;;;;;;7.35;3.70;;;;;;;9.67;100.00;99801.84;12184712;19;20039;-84
2022/10/10 02:19:16;;;;;;;8.98;3.63;;;;;;;9.62;100.00;99804.47;12211949;19;20414;-82
2022/10/10 02:23:20;;;;;;;6.00;3.30;;;;;;;9.59;100.00;99812.13;12206760;19;20014;-82
2022/10/10 02:27:34;;;;;;;9.00;3.60;;;;;;;9.56;100.00;99796.13;12188584;19;20002;-83
2022/10/10 02:31:54;;;;;;;6.07;3.50;;;;;;;9.54;100.00;99791.94;12206667;19;20029;-83
2022/10/10 02:35:57;;;;;;;5.88;3.60;;;;;;;9.52;100.00;99791.34;12188128;19;20030;-83
2022/10/10 02:40:01;;;;;;;9.75;3.22;;;;;;;9.50;100.00;99791.59;12211431;19;20029;-84
2022/10/10 02:44:03;;;;;;;7.75;3.45;;;;;;;9.51;100.00;99789.66;12210852;19;19998;-84
2022/10/10 02:48:05;;;;;;;9.57;3.75;;;;;;;9.52;100.00;99796.88;12201713;19;20011;-84
2022/10/10 02:52:08;;;;;;;8.05;3.75;;;;;;;9.51;100.00;99807.00;12222589;19;20014;-82
2022/10/10 02:56:10;;;;;;;6.82;3.55;;;;;;;9.50;100.00;99802.59;12221584;19;20035;-84
2022/10/10 03:00:12;;;;;;;8.85;3.47;;;;;;;9.49;100.00;99797.34;12207789;19;20372;-84
2022/10/10 03:04:14;;;;;;;6.87;3.40;;;;;;;9.49;100.00;99794.59;12224666;19;20003;-84
2022/10/10 03:08:16;;;;;;;8.50;3.60;;;;;;;9.46;100.00;99793.16;12226171;19;20287;-84
2022/10/10 03:12:18;;;;;;;8.50;3.80;;;;;;;9.44;100.00;99795.31;12197567;19;20673;-84
2022/10/10 03:16:19;;;;;;;8.35;3.67;;;;;;;9.42;100.00;99797.47;12224166;19;20010;-83
2022/10/10 03:20:21;;;;;;;8.25;3.50;;;;;;;9.39;100.00;99797.94;12258885;19;20011;-81
2022/10/10 03:24:23;;;;;;;7.22;3.55;;;;;;;9.38;100.00;99792.69;12251793;19;20022;-81
2022/10/10 03:28:24;;;;;;;6.50;3.53;;;;;;;9.39;100.00;99799.88;12273033;19;20003;-81
2022/10/10 03:32:27;;;;;;;6.13;3.60;;;;;;;9.40;100.00;99793.28;12268105;19;20031;-84
2022/10/10 03:36:30;;;;;;;8.40;4.38;;;;;;;9.39;100.00;99788.88;12213511;19;20010;-83
2022/10/10 03:40:32;;;;;;;9.90;4.05;;;;;;;9.40;100.00;99794.13;12232269;19;20011;-84
2022/10/10 03:44:34;;;;;;;7.30;4.10;;;;;;;9.38;100.00;99799.03;12230941;19;20010;-85
2022/10/10 03:48:35;;;;;;;7.07;4.00;;;;;;;9.35;100.00;99797.59;12208378;19;20010;-84
2022/10/10 03:52:37;;;;;;;7.65;4.13;;;;;;;9.36;100.00;99796.50;12226933;19;20046;-84
2022/10/10 03:56:39;;;;;;;8.43;4.10;;;;;;;9.31;100.00;99799.19;12208602;19;20024;-84
2022/10/10 04:00:41;;;;;;;7.93;3.63;;;;;;;9.25;100.00;99793.78;12229438;19;20132;-85
2022/10/10 04:04:42;;;;;;;9.35;4.35;;;;;;;9.23;100.00;99795.97;12226846;19;20006;-83
2022/10/10 04:08:44;;;;;;;7.85;3.67;;;;;;;9.23;100.00;99790.47;12198763;19;20006;-83
2022/10/10 04:12:46;;;;;;;7.72;3.92;;;;;;;9.22;100.00;99794.25;12213964;19;20081;-82
2022/10/10 04:16:47;;;;;;;6.00;3.88;;;;;;;9.19;100.00;99790.13;12218463;19;20007;-82
2022/10/10 04:20:50;;;;;;;7.20;4.20;;;;;;;9.18;100.00;99787.59;12196495;19;20034;-82
2022/10/10 04:24:52;;;;;;;8.63;4.25;;;;;;;9.16;100.00;99792.47;12215830;19;20007;-82
2022/10/10 04:28:53;;;;;;;9.02;4.13;;;;;;;9.07;100.00;99790.13;12215652;19;20087;-82
2022/10/10 04:32:55;;;;;;;8.05;3.95;;;;;;;9.02;100.00;99798.25;12190479;19;20006;-81
2022/10/10 04:36:57;;;;;;;6.40;4.57;;;;;;;8.89;100.00;99799.34;12216119;19;20035;-81
2022/10/10 04:40:58;;;;;;;9.23;3.90;;;;;;;8.72;100.00;99800.28;12213989;19;20029;-81
2022/10/10 04:45:00;;;;;;;7.78;3.92;;;;;;;8.57;100.00;99809.81;12192393;19;21025;-80
2022/10/10 04:49:02;;;;;;;7.93;3.53;;;;;;;8.44;100.00;99799.03;12213947;19;20006;-80
2022/10/10 04:53:03;;;;;;;7.15;3.55;;;;;;;8.39;100.00;99802.50;12213238;19;20042;-82
2022/10/10 04:57:05;;;;;;;10.18;4.00;;;;;;;8.38;100.00;99810.94;12191562;19;20034;-81
2022/10/10 05:01:07;;;;;;;6.27;3.47;;;;;;;8.36;100.00;99799.38;12213551;19;20043;-81
2022/10/10 05:05:09;;;;;;;7.60;4.18;;;;;;;8.33;100.00;99805.31;12213269;19;20346;-82
2022/10/10 05:09:12;;;;;;;;;;;;;;;8.30;100.00;99803.88;12193063;19;20082;-81
2022/10/10 05:13:15;;;;;;;10.32;3.85;;;;;;;8.27;100.00;99809.00;12209736;19;19930;-81
2022/10/10 05:17:18;;;;;;;9.30;4.18;;;;;;;8.22;100.00;99806.97;12214855;19;20024;-83
2022/10/10 05:21:19;;;;;;;9.60;4.22;;;;;;;8.19;100.00;99819.25;12187918;19;20007;-82
2022/10/10 05:25:21;;;;;;;10.45;4.90;;;;;;;8.17;100.00;99818.63;12209175;19;20010;-82
2022/10/10 05:29:23;;;;;;;8.23;4.78;;;;;;;8.13;100.00;99806.47;12211785;19;20109;-82
2022/10/10 05:33:24;;;;;;;13.13;4.82;;;;;;;8.13;100.00;99811.13;12190549;19;20591;-83
2022/10/10 05:37:26;;;;;;;8.18;4.88;;;;;;;8.12;100.00;99814.91;12205274;19;20500;-82
2022/10/10 05:41:27;;;;;;;9.05;4.95;;;;;;;8.11;100.00;99811.34;12218463;19;20006;-82
2022/10/10 05:45:29;;;;;;;9.63;5.22;;;;;;;8.14;100.00;99827.34;12190557;19;20010;-83
2022/10/10 05:49:31;;;;;;;9.98;5.43;;;;;;;8.18;100.00;99820.31;12211969;19;20007;-82
2022/10/10 05:53:33;;;;;;;11.73;5.68;;;;;;;8.23;100.00;99814.94;12226140;19;20023;-82
2022/10/10 05:57:34;;;;;;;11.13;6.07;;;;;;;8.30;100.00;99816.75;12191806;19;20014;-82
2022/10/10 06:01:36;;;;;;;10.43;5.60;;;;;;;8.37;100.00;99814.75;12212799;19;20011;-82
2022/10/10 06:05:38;;;;;;;9.95;5.30;;;;;;;8.48;100.00;99821.38;12214597;19;20010;-82
2022/10/10 06:09:40;;;;;;;10.52;5.30;;;;;;;8.53;100.00;99824.25;12190409;19;20002;-82
2022/10/10 06:13:42;;;;;;;10.55;5.90;;;;;;;8.58;100.00;99821.63;12207702;19;20010;-82
2022/10/10 06:17:44;;;;;;;11.05;6.07;;;;;;;8.62;100.00;99823.66;12186148;19;20425;-83
2022/10/10 06:21:45;;;;;;;10.32;6.13;;;;;;;8.66;100.00;99830.38;12213677;19;20014;-81
2022/10/10 06:25:50;;;;;;;15.60;7.18;;;;;;;8.71;100.00;99837.88;12220913;19;20035;-82
2022/10/10 06:29:52;;;;;;;11.00;6.18;;;;;;;8.76;100.00;99832.53;12197207;19;20035;-82
2022/10/10 06:33:53;;;;;;;16.42;8.70;;;;;;;8.81;100.00;99837.31;12196203;19;20083;-82
2022/10/10 06:37:55;;;;;;;21.35;12.40;;;;;;;8.87;100.00;99841.88;12223966;19;20006;-82
2022/10/10 06:41:57;;;;;;;16.38;9.35;;;;;;;8.92;100.00;99836.47;12198531;19;20087;-82
2022/10/10 06:46:00;;;;;;;23.77;10.37;;;;;;;9.00;100.00;99838.88;12224001;19;20402;-81
2022/10/10 06:50:01;;;;;;;18.93;10.03;;;;;;;9.12;100.00;99841.63;12232447;19;20030;-81
2022/10/10 06:54:03;;;;;;;11.88;7.30;;;;;;;9.22;100.00;99838.25;12208241;19;20767;-81
2022/10/10 06:58:06;;;;;;;13.73;6.47;;;;;;;9.24;100.00;99856.19;12223467;19;20003;-82
2022/10/10 07:02:12;;;;;;;11.70;6.20;;;;;;;9.28;100.00;99859.28;12220656;19;20037;-82
2022/10/10 07:06:15;;;;;;;11.05;5.53;;;;;;;9.30;100.00;99857.16;12201562;19;20023;-82
2022/10/10 07:10:32;;;;;;;10.98;5.82;;;;;;;9.32;100.00;99866.84;12224021;19;20459;-82
2022/10/10 07:14:36;;;;;;;15.52;6.63;;;;;;;9.38;100.00;99876.03;12225287;19;20027;-82
2022/10/10 07:18:38;;;;;;;14.30;6.75;;;;;;;9.58;100.00;99878.41;12199116;19;20014;-82
2022/10/10 07:22:39;;;;;;;14.10;7.38;;;;;;;9.89;100.00;99881.81;12220781;19;20381;-83
2022/10/10 07:26:41;;;;;;;14.20;6.85;;;;;;;10.14;100.00;99887.84;12202110;19;20042;-82
2022/10/10 07:30:44;;;;;;;14.55;6.93;;;;;;;10.38;100.00;99896.88;12222795;19;20530;-82
2022/10/10 07:34:46;;;;;;;10.93;6.15;;;;;;;10.63;100.00;99898.41;12222920;19;20118;-82
2022/10/10 07:38:50;;;;;;;11.00;6.60;;;;;;;10.88;100.00;99896.09;12200921;19;20475;-84
2022/10/10 07:42:52;;;;;;;10.75;5.78;;;;;;;11.05;100.00;99907.13;12218988;19;20007;-81
2022/10/10 07:47:00;;;;;;;9.95;6.88;;;;;;;10.98;100.00;99906.47;12213948;19;20051;-83
2022/10/10 07:51:34;;;;;;;10.10;6.78;;;;;;;10.97;100.00;99903.97;12241316;19;20006;-82
2022/10/10 07:56:07;;;;;;;12.45;6.78;;;;;;;11.20;100.00;99908.47;12224979;19;20358;-83
2022/10/10 08:00:10;;;;;;;12.20;6.38;;;;;;;11.48;100.00;99915.78;12230224;19;20014;-82
2022/10/10 08:04:14;;;;;;;9.52;6.32;;;;;;;11.69;100.00;99920.53;12227610;19;20002;-84
2022/10/10 08:08:18;;;;;;;11.63;5.90;;;;;;;11.91;100.00;99905.94;12224305;19;20500;-83
2022/10/10 08:12:23;;;;;;;12.23;7.03;;;;;;;12.08;100.00;99906.72;12197054;19;20014;-83
2022/10/10 08:16:26;;;;;;;9.57;6.32;;;;;;;12.23;100.00;99900.53;12218715;19;20046;-82
2022/10/10 08:20:40;;;;;;;12.80;6.70;;;;;;;12.43;100.00;99903.53;12205661;19;20010;-82
2022/10/10 08:24:42;;;;;;;13.23;6.55;;;;;;;12.56;100.00;99899.50;12196691;19;20010;-82
2022/10/10 08:28:44;;;;;;;13.70;6.93;;;;;;;12.81;100.00;99898.09;12252724;19;20003;-82
2022/10/10 08:32:56;;;;;;;;;;;;;;;12.91;100.00;99903.69;12271224;19;20019;-84
2022/10/10 08:37:02;;;;;;;10.25;6.82;;;;;;;12.99;100.00;99898.53;12222034;19;20260;-83
2022/10/10 08:41:12;;;;;;;11.20;7.13;;;;;;;13.20;99.05;99902.28;12218325;19;20381;-83
2022/10/10 08:50:32;;;;;;;;;;;;;;;13.51;96.51;99902.56;12221062;19;20034;-83
2022/10/10 08:55:00;;;;;;;13.07;7.45;;;;;;;13.73;96.27;99901.56;12196155;19;19920;-83
2022/10/10 08:59:13;;;;;;;12.80;6.85;;;;;;;13.84;94.72;99893.03;12216697;19;21524;-83
2022/10/10 09:03:25;;;;;;;10.32;6.55;;;;;;;13.98;94.94;99887.00;12194207;19;20010;-82
2022/10/10 09:08:13;;;;;;;13.55;7.10;;;;;;;14.24;93.27;99886.00;12218195;19;20006;-82
2022/10/10 09:12:36;;;;;;;12.05;6.63;;;;;;;14.49;91.55;99882.47;12193334;19;20006;-82
2022/10/10 09:16:52;;;;;;;9.52;6.63;;;;;;;14.58;89.37;99880.84;12216443;19;20030;-82
2022/10/10 09:21:17;;;;;;;13.88;6.60;;;;;;;14.87;89.45;99876.72;12198384;19;20011;-83
2022/10/10 09:40:12;;;;;;;11.45;6.15;;;;;;;16.96;81.53;99878.78;12219742;19;20016;-85
2022/10/10 09:44:16;;;;;;;11.90;5.97;;;;;;;16.82;80.11;99881.38;12213400;19;20006;-83
2022/10/10 09:48:41;;;;;;;12.55;6.63;;;;;;;16.98;79.68;99872.91;12194696;19;20027;-83
2022/10/10 09:52:46;;;;;;;11.55;6.60;;;;;;;17.03;79.17;99876.50;12213255;19;20050;-82
2022/10/10 09:56:53;;;;;;;9.85;5.50;;;;;;;17.32;80.02;99886.84;12189485;19;20015;-83
2022/10/10 10:01:18;;;;;;;10.07;6.30;;;;;;;17.46;78.53;99875.81;12215328;19;21298;-83
2022/10/10 10:10:34;;;;;;;11.93;6.43;;;;;;;17.39;79.86;99892.88;12212811;19;20010;-84
2022/10/10 10:14:37;;;;;;;10.23;6.43;;;;;;;17.33;79.19;99882.09;12214827;19;20014;-83
2022/10/10 10:18:40;;;;;;;14.02;6.35;;;;;;;17.45;79.05;99879.72;12187652;19;20050;-83
2022/10/10 10:22:45;;;;;;;11.50;6.32;;;;;;;17.58;79.63;99879.06;12205631;19;20014;-84
2022/10/10 10:27:09;;;;;;;13.40;6.90;;;;;;;17.64;80.13;99872.31;12191135;19;20010;-84
2022/10/10 10:31:58;;;;;;;11.88;7.10;;;;;;;17.69;80.09;99882.53;12210532;19;20098;-83
2022/10/10 10:36:30;;;;;;;8.95;5.93;;;;;;;17.98;80.02;99888.94;12191851;19;20011;-84
2022/10/10 10:40:41;;;;;;;12.27;6.40;;;;;;;18.21;79.42;99876.09;12212699;19;20011;-84
2022/10/10 10:44:49;;;;;;;10.77;6.65;;;;;;;18.47;78.97;99870.16;12187734;19;20010;-83
2022/10/10 10:49:00;;;;;;;9.35;6.25;;;;;;;18.87;78.65;99870.72;12223770;19;20010;-85
2022/10/10 10:53:22;;;;;;;12.07;6.45;;;;;;;19.19;76.92;99869.91;12265391;19;19991;-85
2022/10/10 10:57:45;;;;;;;10.70;5.90;;;;;;;19.30;76.34;99870.53;12244072;19;20020;-86
2022/10/10 11:02:06;;;;;;;13.48;5.57;;;;;;;19.45;76.19;99875.84;12210886;19;20011;-83
2022/10/10 11:06:15;;;;;;;;;;;;;;;19.57;76.07;99879.00;12191779;19;20010;-84
2022/10/10 11:10:44;;;;;;;10.85;5.53;;;;;;;19.71;74.41;99861.44;12222976;19;19922;-83
2022/10/10 11:14:55;;;;;;;7.75;4.82;;;;;;;19.83;74.82;99858.97;12197639;19;20914;-83
2022/10/10 11:19:07;;;;;;;11.43;5.47;;;;;;;20.14;73.95;99852.75;12219611;19;20157;-84
2022/10/10 11:23:23;;;;;;;8.85;5.47;;;;;;;20.20;71.92;99852.31;12216930;19;20018;-83
2022/10/10 11:27:41;;;;;;;12.35;6.13;;;;;;;20.51;70.95;99848.81;12202966;19;20661;-84
2022/10/10 11:36:46;;;;;;;11.38;5.63;;;;;;;21.16;68.60;99856.78;12194902;19;20025;-84
2022/10/10 11:41:11;;;;;;;13.18;6.00;;;;;;;21.56;65.93;99858.84;12217671;19;20070;-83
2022/10/10 11:46:00;;;;;;;13.55;5.22;;;;;;;22.24;66.39;99863.09;12194206;19;20555;-86
2022/10/10 11:55:39;;;;;;;11.88;5.50;;;;;;;23.24;60.03;99857.72;12220623;19;20011;-84
2022/10/10 11:59:48;;;;;;;13.80;4.88;;;;;;;23.59;60.37;99859.28;12200937;19;20013;-85
2022/10/10 12:03:51;;;;;;;8.98;4.60;;;;;;;23.87;59.14;99854.06;12215430;19;20041;-83
2022/10/10 12:08:16;;;;;;;9.25;4.82;;;;;;;24.33;57.07;99843.88;12221427;19;20095;-83
2022/10/10 12:12:33;;;;;;;8.93;4.90;;;;;;;24.89;56.34;99843.63;12197061;19;20025;-85
2022/10/10 12:16:36;;;;;;;8.85;4.90;;;;;;;25.27;55.18;99848.28;12218233;19;20384;-85
2022/10/10 12:20:41;;;;;;;9.95;4.60;;;;;;;25.61;53.38;99837.78;12221472;19;20010;-84
2022/10/10 12:25:21;;;;;;;10.63;4.53;;;;;;;25.77;52.10;99849.22;12196871;19;20007;-86
2022/10/10 12:29:55;;;;;;;14.60;5.07;;;;;;;26.10;50.98;99841.50;12223859;19;20034;-85
2022/10/10 12:39:25;;;;;;;16.17;4.50;;;;;;;26.52;49.34;99827.09;12183105;19;20042;-84
2022/10/10 12:44:01;;;;;;;9.05;4.32;;;;;;;26.84;48.49;99832.09;12218868;19;20006;-85
2022/10/10 12:48:18;;;;;;;9.73;4.35;;;;;;;26.98;46.96;99833.34;12192566;19;20054;-85
2022/10/10 12:52:47;;;;;;;10.05;4.65;;;;;;;26.80;46.55;99832.81;12220391;19;20711;-83
2022/10/10 12:56:51;;;;;;;8.07;4.82;;;;;;;26.64;47.04;99820.59;12204410;19;20014;-82
2022/10/10 13:00:58;;;;;;;9.82;4.28;;;;;;;26.36;46.69;99817.72;12213291;19;20014;-83
2022/10/10 13:05:03;;;;;;;9.32;4.40;;;;;;;25.59;47.79;99820.41;12213419;19;20003;-85
2022/10/10 13:09:10;;;;;;;8.68;4.80;;;;;;;24.83;49.25;99822.47;12200566;19;20567;-84
2022/10/10 13:13:17;;;;;;;11.45;4.78;;;;;;;24.29;50.93;99828.81;12211673;19;20014;-85
2022/10/10 13:17:30;;;;;;;10.57;4.18;;;;;;;24.05;51.29;99814.56;12217919;19;20022;-84
2022/10/10 13:21:33;;;;;;;9.68;3.75;;;;;;;23.93;51.96;99828.56;12189639;19;20066;-83
2022/10/10 13:25:39;;;;;;;11.38;4.80;;;;;;;23.87;52.19;99833.53;12214756;19;20022;-83
2022/10/10 13:29:56;;;;;;;8.93;4.05;;;;;;;23.69;51.83;99818.69;12188509;19;20055;-84
2022/10/10 13:34:29;;;;;;;9.82;3.53;;;;;;;23.56;52.53;99820.59;12214706;19;20018;-84
2022/10/10 13:43:03;;;;;;;12.75;4.10;;;;;;;22.98;53.95;99819.22;12201327;19;20078;-83
2022/10/10 13:47:53;;;;;;;10.63;3.58;;;;;;;22.57;54.66;99820.53;12215013;19;20010;-83
2022/10/10 13:52:04;;;;;;;12.57;4.05;;;;;;;22.31;55.68;99828.97;12191651;19;20029;-85
2022/10/10 13:56:27;;;;;;;13.55;4.75;;;;;;;22.23;57.02;99824.97;12223197;19;20019;-83
2022/10/10 14:00:31;;;;;;;9.05;4.03;;;;;;;22.17;57.77;99819.84;12196257;19;20021;-83
2022/10/10 14:04:43;;;;;;;17.85;4.22;;;;;;;22.26;57.32;99810.28;12215044;19;20354;-82
2022/10/10 14:08:48;;;;;;;9.50;4.05;;;;;;;22.28;57.72;99816.41;12193803;19;20006;-83
2022/10/10 14:12:59;;;;;;;9.50;3.50;;;;;;;22.23;57.99;99824.97;12212814;19;20498;-84
2022/10/10 14:17:10;;;;;;;16.67;4.28;;;;;;;22.23;58.23;99827.78;12216226;19;20361;-83
2022/10/10 14:21:19;;;;;;;12.82;3.83;;;;;;;22.08;58.43;99826.22;12190256;19;20525;-83
2022/10/10 14:25:20;;;;;;;;;;;;;;;22.00;59.68;99818.59;12213510;19;20010;-83
2022/10/10 14:29:22;;;;;;;12.77;4.45;;;;;;;22.00;59.28;99813.00;12211485;19;19918;-83
2022/10/10 14:33:25;;;;;;;16.35;4.53;;;;;;;22.06;58.69;99822.91;12185598;19;20078;-83
2022/10/10 14:37:28;;;;;;;11.77;3.75;;;;;;;22.10;58.68;99816.66;12213813;19;20013;-83
2022/10/10 14:41:29;;;;;;;12.18;3.40;;;;;;;22.06;59.07;99825.72;12214501;19;20038;-83
2022/10/10 14:45:31;;;;;;;14.05;4.45;;;;;;;22.08;59.18;99820.63;12200812;19;20429;-83
2022/10/10 14:49:33;;;;;;;12.97;3.87;;;;;;;22.07;59.46;99815.31;12221432;19;20003;-83
2022/10/10 14:53:36;;;;;;;8.10;3.90;;;;;;;22.10;59.04;99819.44;12221855;19;20021;-84
2022/10/10 14:57:38;;;;;;;11.53;4.27;;;;;;;22.08;59.91;99814.19;12203077;19;20063;-83
2022/10/10 15:01:40;;;;;;;9.63;3.83;;;;;;;22.13;60.01;99810.38;12219900;19;20495;-83
2022/10/10 15:05:41;;;;;;;12.63;3.27;;;;;;;22.32;60.10;99801.72;12221697;19;20022;-84
2022/10/10 15:09:44;;;;;;;10.43;4.45;;;;;;;22.13;59.88;99800.00;12195983;19;20006;-83
2022/10/10 15:14:06;;;;;;;12.50;4.50;;;;;;;21.96;60.74;99809.19;12220311;19;20102;-83
2022/10/10 15:18:09;;;;;;;18.90;4.40;;;;;;;21.75;61.53;99806.16;12195867;19;20030;-84
2022/10/10 15:22:42;;;;;;;10.27;4.03;;;;;;;21.50;62.48;99804.91;12229309;19;20369;-84
2022/10/10 15:26:44;;;;;;;14.23;4.35;;;;;;;21.36;63.05;99799.41;12205910;19;20073;-83
2022/10/10 15:30:46;;;;;;;12.10;3.95;;;;;;;21.28;63.41;99799.34;12223261;19;20082;-84
2022/10/10 15:34:48;;;;;;;11.32;4.03;;;;;;;21.26;64.00;99798.81;12222638;19;20007;-84
2022/10/10 15:38:50;;;;;;;11.00;4.43;;;;;;;21.18;64.63;99811.66;12202174;19;20027;-83
2022/10/10 15:42:52;;;;;;;9.77;4.03;;;;;;;21.06;65.51;99814.19;12222857;19;20007;-83
2022/10/10 15:46:54;;;;;;;12.63;4.00;;;;;;;20.94;66.58;99810.00;12218947;19;20038;-82
2022/10/10 15:50:58;;;;;;;10.23;3.97;;;;;;;20.86;66.73;99804.34;12195443;19;20724;-83
2022/10/10 15:55:00;;;;;;;11.35;3.95;;;;;;;20.78;67.51;99808.72;12224632;19;20015;-83
2022/10/10 15:59:03;;;;;;;16.40;4.57;;;;;;;20.67;68.33;99819.38;12223162;19;20360;-83
2022/10/10 16:03:05;;;;;;;10.30;4.20;;;;;;;20.59;69.48;99816.50;12198928;19;20101;-82
2022/10/10 16:07:07;;;;;;;13.57;4.20;;;;;;;20.56;69.91;99808.72;12222263;19;20026;-83
2022/10/10 16:11:29;;;;;;;;;;;;;;;20.46;70.25;99821.78;12223185;19;20016;-83
2022/10/10 16:15:31;;;;;;;13.57;4.75;;;;;;;20.30;70.91;99816.84;12200076;19;19926;-83
2022/10/10 16:19:33;;;;;;;14.47;4.57;;;;;;;20.06;72.24;99823.53;12219586;19;20106;-82
2022/10/10 16:23:35;;;;;;;12.98;4.63;;;;;;;19.80;73.53;99826.03;12216495;19;20010;-83
2022/10/10 16:27:37;;;;;;;10.27;4.50;;;;;;;19.52;74.64;99836.34;12193717;19;20313;-83
2022/10/10 16:31:40;;;;;;;15.02;4.38;;;;;;;19.24;75.84;99841.03;12215076;19;20271;-83
2022/10/10 16:36:13;;;;;;;11.70;5.43;;;;;;;18.97;77.60;99847.38;12215924;19;20014;-83
2022/10/10 16:40:44;;;;;;;11.40;4.32;;;;;;;18.73;78.32;99851.09;12118964;19;2004536;-84
2022/10/10 16:44:46;;;;;;;26.13;5.90;;;;;;;18.59;79.16;99852.97;12201416;19;20082;-83
2022/10/10 16:48:56;;;;;;;10.52;4.70;;;;;;;18.45;80.07;99858.50;12221088;19;20018;-83
2022/10/10 16:53:03;;;;;;;13.05;4.50;;;;;;;18.39;80.36;99856.91;12219182;19;20018;-83
2022/10/10 16:57:08;;;;;;;16.50;4.45;;;;;;;18.37;80.86;99862.75;12195232;19;20055;-83
2022/10/10 17:01:16;;;;;;;11.18;4.50;;;;;;;18.35;81.46;99862.25;12218918;19;20017;-83
2022/10/10 17:05:18;;;;;;;10.73;4.18;;;;;;;18.35;81.53;99862.25;12218751;19;20003;-83
2022/10/10 17:09:21;;;;;;;17.63;5.15;;;;;;;18.35;81.49;99859.47;12197197;19;20003;-83
2022/10/10 17:13:26;;;;;;;15.98;5.00;;;;;;;18.32;82.01;99865.66;12215935;19;20030;-83
2022/10/10 17:17:27;;;;;;;9.75;4.18;;;;;;;18.25;82.67;99867.13;12216729;19;20014;-83
2022/10/10 17:21:31;;;;;;;12.52;3.88;;;;;;;18.15;83.13;99871.72;12194985;19;20018;-83
2022/10/10 17:25:33;;;;;;;12.77;4.40;;;;;;;18.06;83.85;99872.69;12220554;19;20013;-83
2022/10/10 17:29:53;;;;;;;9.82;4.40;;;;;;;18.02;84.08;99878.00;12189621;19;20007;-82
2022/10/10 17:33:56;;;;;;;12.90;4.90;;;;;;;18.05;83.86;99887.75;12214641;19;20078;-83
2022/10/10 17:37:57;;;;;;;15.48;5.65;;;;;;;18.09;83.39;99895.22;12216432;19;20018;-83
2022/10/10 17:42:16;;;;;;;12.10;4.38;;;;;;;18.14;82.96;99909.09;12193003;19;20028;-82
2022/10/10 17:46:23;;;;;;;13.57;5.50;;;;;;;18.17;83.84;99933.63;12213025;19;20007;-83
2022/10/10 17:50:42;;;;;;;16.83;6.60;;;;;;;18.08;86.34;99971.63;12212285;19;20333;-81
2022/10/10 17:54:43;;;;;;;13.43;6.38;;;;;;;17.84;90.83;99977.19;12188469;19;20007;-80
2022/10/10 17:58:46;;;;;;;14.77;6.72;;;;;;;17.63;94.12;99979.28;12217510;19;20007;-81
2022/10/10 18:02:49;;;;;;;;;;;;;;;17.39;99.05;99964.47;12186285;19;20074;-80
2022/10/10 18:07:08;;;;;;;15.27;6.38;;;;;;;17.14;100.00;99976.66;12219288;19;20249;-81
2022/10/10 18:11:29;;;;;;;16.13;6.43;;;;;;;16.95;100.00;99985.66;12221087;19;20051;-81
2022/10/10 18:15:38;;;;;;;13.70;6.28;;;;;;;16.85;100.00;99989.34;12193002;19;20357;-81
2022/10/10 18:19:42;;;;;;;19.98;7.75;;;;;;;16.78;100.00;99988.84;12214108;19;20010;-80
2022/10/10 18:23:46;;;;;;;17.08;8.10;;;;;;;16.70;100.00;100006.09;12238453;19;20058;-80
2022/10/10 18:28:10;;;;;;;16.70;7.47;;;;;;;16.63;100.00;99998.06;12263928;19;20003;-81
2022/10/10 18:32:12;;;;;;;20.35;7.88;;;;;;;16.57;100.00;99996.44;12247081;19;20030;-81
2022/10/10 18:36:17;;;;;;;16.73;7.35;;;;;;;16.52;100.00;99995.63;12195421;19;20122;-82
2022/10/10 18:40:18;;;;;;;22.58;8.57;;;;;;;16.44;100.00;99999.81;12216636;19;20030;-82
2022/10/10 18:44:27;;;;;;;18.58;8.05;;;;;;;16.37;100.00;99997.34;12218600;19;20006;-83
2022/10/10 18:48:30;;;;;;;23.73;9.20;;;;;;;16.32;100.00;100002.09;12237604;19;20090;-81
2022/10/10 18:52:47;;;;;;;23.63;9.57;;;;;;;16.28;100.00;100003.78;12240658;19;20013;-83
2022/10/10 18:56:50;;;;;;;21.05;9.27;;;;;;;16.24;100.00;100009.06;12192574;19;20124;-83
2022/10/10 19:01:14;;;;;;;17.13;9.18;;;;;;;16.24;100.00;100011.84;12212464;19;20007;-82
2022/10/10 19:05:19;;;;;;;21.48;9.55;;;;;;;16.24;100.00;100009.06;12212886;19;20030;-82
2022/10/10 19:09:21;;;;;;;22.85;9.30;;;;;;;16.22;100.00;100014.06;12190595;19;20006;-82
2022/10/10 19:13:22;;;;;;;21.63;9.38;;;;;;;16.25;100.00;100030.19;12210385;19;20006;-82
2022/10/10 19:17:24;;;;;;;23.48;8.93;;;;;;;16.27;100.00;100043.78;12216422;19;20014;-82
2022/10/10 19:21:30;;;;;;;21.30;9.38;;;;;;;16.30;100.00;100057.13;12188332;19;20482;-81
2022/10/10 19:25:38;;;;;;;21.45;10.32;;;;;;;16.28;100.00;100067.72;12210381;19;20003;-81
2022/10/10 19:29:40;;;;;;;26.52;12.00;;;;;;;16.26;100.00;100065.22;12225542;19;20003;-81
2022/10/10 19:33:43;;;;;;;24.65;11.18;;;;;;;16.22;100.00;100058.56;12199105;19;20017;-81
2022/10/10 19:37:44;;;;;;;;;;;;;;;16.15;100.00;100063.56;12232094;19;20006;-80
2022/10/10 19:41:46;;;;;;;32.13;11.20;;;;;;;16.09;100.00;100073.03;12215002;19;20317;-82
2022/10/10 19:45:52;;;;;;;24.77;9.93;;;;;;;16.00;100.00;100089.44;12228571;19;20010;-82
2022/10/10 19:49:53;;;;;;;20.25;10.02;;;;;;;15.83;100.00;100070.28;12224528;19;20085;-83